sensor_id;sensor_type;location;lat;lon;timestamp;temperature;humidity
71396;DHT22;59888;55.814;37.132;2023-04-01T00:01:34;6.00;59.94
71396;DHT22;59888;55.814;37.132;2023-04-01T00:03:59;5.99;59.90
71396;DHT22;59888;55.814;37.132;2023-04-01T00:06:27;5.96;59.92
71396;DHT22;59888;55.814;37.132;2023-04-01T00:08:53;5.97;59.99
71396;DHT22;59888;55.814;37.132;2023-04-01T00:11:19;5.98;59.99
71396;DHT22;59888;55.814;37.132;2023-04-01T00:13:47;5.98;59.94
71396;DHT22;59888;55.814;37.132;2023-04-01T00:16:13;5.99;59.96
71396;DHT22;59888;55.814;37.132;2023-04-01T00:18:40;5.96;59.93
71396;DHT22;59888;55.814;37.132;2023-04-01T00:21:07;5.91;60.08
71396;DHT22;59888;55.814;37.132;2023-04-01T00:23:33;5.94;60.15
71396;DHT22;59888;55.814;37.132;2023-04-01T00:26:02;5.96;60.17
71396;DHT22;59888;55.814;37.132;2023-04-01T00:28:28;6.01;60.02
71396;DHT22;59888;55.814;37.132;2023-04-01T00:30:54;6.00;60.02
71396;DHT22;59888;55.814;37.132;2023-04-01T00:33:20;5.99;60.01
71396;DHT22;59888;55.814;37.132;2023-04-01T00:35:46;5.99;60.06
71396;DHT22;59888;55.814;37.132;2023-04-01T00:38:12;5.99;60.10
71396;DHT22;59888;55.814;37.132;2023-04-01T00:40:41;6.05;60.12
71396;DHT22;59888;55.814;37.132;2023-04-01T00:43:18;6.05;60.09
71396;DHT22;59888;55.814;37.132;2023-04-01T00:45:47;6.13;59.91
71396;DHT22;59888;55.814;37.132;2023-04-01T00:48:17;6.16;59.82
71396;DHT22;59888;55.814;37.132;2023-04-01T00:50:58;6.14;59.70
71396;DHT22;59888;55.814;37.132;2023-04-01T00:53:25;6.09;59.79
71396;DHT22;59888;55.814;37.132;2023-04-01T00:58:31;6.01;59.83
71396;DHT22;59888;55.814;37.132;2023-04-01T01:00:59;5.95;60.00
71396;DHT22;59888;55.814;37.132;2023-04-01T01:03:25;5.95;60.02
71396;DHT22;59888;55.814;37.132;2023-04-01T01:12:18;6.07;60.21
71396;DHT22;59888;55.814;37.132;2023-04-01T01:37:19;6.01;60.22
71396;DHT22;59888;55.814;37.132;2023-04-01T01:39:51;6.06;60.22
71396;DHT22;59888;55.814;37.132;2023-04-01T01:45:04;6.13;60.01
71396;DHT22;59888;55.814;37.132;2023-04-01T01:47:32;6.11;59.92
71396;DHT22;59888;55.814;37.132;2023-04-01T01:50:00;6.05;60.00
71396;DHT22;59888;55.814;37.132;2023-04-01T01:52:27;6.06;60.09
71396;DHT22;59888;55.814;37.132;2023-04-01T01:54:57;6.08;60.02
71396;DHT22;59888;55.814;37.132;2023-04-01T01:57:33;6.07;60.15
71396;DHT22;59888;55.814;37.132;2023-04-01T02:00:11;6.07;60.15
71396;DHT22;59888;55.814;37.132;2023-04-01T02:02:45;6.11;60.09
71396;DHT22;59888;55.814;37.132;2023-04-01T02:05:25;6.16;60.06
71396;DHT22;59888;55.814;37.132;2023-04-01T02:08:20;6.21;59.99
71396;DHT22;59888;55.814;37.132;2023-04-01T02:10:56;6.21;59.96
71396;DHT22;59888;55.814;37.132;2023-04-01T02:13:35;6.25;59.82
71396;DHT22;59888;55.814;37.132;2023-04-01T02:16:08;6.20;59.67
71396;DHT22;59888;55.814;37.132;2023-04-01T02:18:38;5.97;59.90
71396;DHT22;59888;55.814;37.132;2023-04-01T02:21:05;5.69;60.47
71396;DHT22;59888;55.814;37.132;2023-04-01T02:23:36;5.49;60.97
71396;DHT22;59888;55.814;37.132;2023-04-01T02:26:06;5.43;61.31
71396;DHT22;59888;55.814;37.132;2023-04-01T02:28:36;5.48;61.14
71396;DHT22;59888;55.814;37.132;2023-04-01T02:31:04;5.45;61.32
71396;DHT22;59888;55.814;37.132;2023-04-01T02:33:31;5.43;61.30
71396;DHT22;59888;55.814;37.132;2023-04-01T02:35:57;5.38;61.44
71396;DHT22;59888;55.814;37.132;2023-04-01T02:38:23;5.38;61.50
71396;DHT22;59888;55.814;37.132;2023-04-01T02:40:55;5.34;61.71
71396;DHT22;59888;55.814;37.132;2023-04-01T02:43:22;5.45;61.60
71396;DHT22;59888;55.814;37.132;2023-04-01T02:45:47;5.52;61.51
71396;DHT22;59888;55.814;37.132;2023-04-01T02:48:13;5.57;61.36
71396;DHT22;59888;55.814;37.132;2023-04-01T02:50:40;5.56;61.25
71396;DHT22;59888;55.814;37.132;2023-04-01T02:53:05;5.55;61.20
71396;DHT22;59888;55.814;37.132;2023-04-01T02:55:33;5.53;61.18
71396;DHT22;59888;55.814;37.132;2023-04-01T02:57:59;5.49;61.24
71396;DHT22;59888;55.814;37.132;2023-04-01T03:00:26;5.46;61.26
71396;DHT22;59888;55.814;37.132;2023-04-01T03:02:52;5.41;61.41
71396;DHT22;59888;55.814;37.132;2023-04-01T03:05:19;5.43;61.35
71396;DHT22;59888;55.814;37.132;2023-04-01T03:07:45;5.42;61.47
71396;DHT22;59888;55.814;37.132;2023-04-01T03:10:12;5.40;61.47
71396;DHT22;59888;55.814;37.132;2023-04-01T03:12:38;5.43;61.49
71396;DHT22;59888;55.814;37.132;2023-04-01T03:15:05;5.41;61.51
71396;DHT22;59888;55.814;37.132;2023-04-01T03:17:31;5.36;61.47
71396;DHT22;59888;55.814;37.132;2023-04-01T03:19:57;5.31;61.67
71396;DHT22;59888;55.814;37.132;2023-04-01T03:22:23;5.25;61.76
71396;DHT22;59888;55.814;37.132;2023-04-01T03:24:49;5.28;61.88
71396;DHT22;59888;55.814;37.132;2023-04-01T03:27:15;5.30;61.85
71396;DHT22;59888;55.814;37.132;2023-04-01T03:29:41;5.33;61.86
71396;DHT22;59888;55.814;37.132;2023-04-01T03:32:08;5.28;61.92
71396;DHT22;59888;55.814;37.132;2023-04-01T03:34:34;5.24;61.89
71396;DHT22;59888;55.814;37.132;2023-04-01T03:37:00;5.27;62.08
71396;DHT22;59888;55.814;37.132;2023-04-01T03:39:26;5.34;61.87
71396;DHT22;59888;55.814;37.132;2023-04-01T03:41:52;5.30;61.97
71396;DHT22;59888;55.814;37.132;2023-04-01T03:44:19;5.30;61.95
71396;DHT22;59888;55.814;37.132;2023-04-01T03:46:48;5.24;62.02
71396;DHT22;59888;55.814;37.132;2023-04-01T03:49:14;5.15;62.23
71396;DHT22;59888;55.814;37.132;2023-04-01T03:51:42;5.12;62.24
71396;DHT22;59888;55.814;37.132;2023-04-01T03:54:09;5.00;62.53
71396;DHT22;59888;55.814;37.132;2023-04-01T03:56:36;4.94;62.79
71396;DHT22;59888;55.814;37.132;2023-04-01T03:59:04;4.95;62.90
71396;DHT22;59888;55.814;37.132;2023-04-01T04:01:30;5.02;63.06
71396;DHT22;59888;55.814;37.132;2023-04-01T04:03:56;5.09;63.03
71396;DHT22;59888;55.814;37.132;2023-04-01T04:06:27;5.18;62.87
71396;DHT22;59888;55.814;37.132;2023-04-01T04:08:53;5.20;62.86
71396;DHT22;59888;55.814;37.132;2023-04-01T04:11:21;5.31;62.70
71396;DHT22;59888;55.814;37.132;2023-04-01T04:13:49;5.24;62.63
71396;DHT22;59888;55.814;37.132;2023-04-01T04:16:16;5.26;62.73
71396;DHT22;59888;55.814;37.132;2023-04-01T04:18:46;5.31;62.75
71396;DHT22;59888;55.814;37.132;2023-04-01T04:21:13;5.36;62.74
71396;DHT22;59888;55.814;37.132;2023-04-01T04:23:41;5.36;62.61
71396;DHT22;59888;55.814;37.132;2023-04-01T04:26:09;5.32;62.48
71396;DHT22;59888;55.814;37.132;2023-04-01T04:28:36;5.34;62.76
71396;DHT22;59888;55.814;37.132;2023-04-01T04:31:03;5.39;62.70
71396;DHT22;59888;55.814;37.132;2023-04-01T04:33:33;5.37;62.88
71396;DHT22;59888;55.814;37.132;2023-04-01T04:36:00;5.47;62.76
71396;DHT22;59888;55.814;37.132;2023-04-01T04:38:27;5.52;62.72
71396;DHT22;59888;55.814;37.132;2023-04-01T04:40:54;5.55;62.43
71396;DHT22;59888;55.814;37.132;2023-04-01T04:43:20;5.59;62.66
71396;DHT22;59888;55.814;37.132;2023-04-01T04:45:46;5.62;62.47
71396;DHT22;59888;55.814;37.132;2023-04-01T04:48:16;5.69;62.50
71396;DHT22;59888;55.814;37.132;2023-04-01T04:50:48;5.77;62.39
71396;DHT22;59888;55.814;37.132;2023-04-01T04:53:17;5.83;62.22
71396;DHT22;59888;55.814;37.132;2023-04-01T04:55:48;5.84;62.19
71396;DHT22;59888;55.814;37.132;2023-04-01T04:58:27;5.81;62.24
71396;DHT22;59888;55.814;37.132;2023-04-01T05:00:53;5.92;62.25
71396;DHT22;59888;55.814;37.132;2023-04-01T05:03:25;6.05;62.20
71396;DHT22;59888;55.814;37.132;2023-04-01T05:05:52;6.16;62.09
71396;DHT22;59888;55.814;37.132;2023-04-01T05:08:19;6.23;61.76
71396;DHT22;59888;55.814;37.132;2023-04-01T05:10:46;6.23;61.77
71396;DHT22;59888;55.814;37.132;2023-04-01T05:13:12;6.27;61.76
71396;DHT22;59888;55.814;37.132;2023-04-01T05:15:39;6.38;61.76
71396;DHT22;59888;55.814;37.132;2023-04-01T05:18:05;6.45;61.67
71396;DHT22;59888;55.814;37.132;2023-04-01T05:20:31;6.45;61.42
71396;DHT22;59888;55.814;37.132;2023-04-01T05:22:58;6.44;61.38
71396;DHT22;59888;55.814;37.132;2023-04-01T05:25:24;6.50;61.50
71396;DHT22;59888;55.814;37.132;2023-04-01T05:27:51;6.58;61.38
71396;DHT22;59888;55.814;37.132;2023-04-01T05:30:17;6.69;61.45
71396;DHT22;59888;55.814;37.132;2023-04-01T05:32:56;6.79;61.28
71396;DHT22;59888;55.814;37.132;2023-04-01T05:35:23;6.84;61.12
71396;DHT22;59888;55.814;37.132;2023-04-01T05:37:49;6.80;60.89
71396;DHT22;59888;55.814;37.132;2023-04-01T05:40:16;6.71;61.09
71396;DHT22;59888;55.814;37.132;2023-04-01T05:42:42;6.67;61.14
71396;DHT22;59888;55.814;37.132;2023-04-01T05:45:08;6.73;61.25
71396;DHT22;59888;55.814;37.132;2023-04-01T05:47:53;6.85;61.00
71396;DHT22;59888;55.814;37.132;2023-04-01T05:50:19;6.84;61.04
71396;DHT22;59888;55.814;37.132;2023-04-01T05:52:45;6.90;60.86
71396;DHT22;59888;55.814;37.132;2023-04-01T05:55:11;6.85;61.08
71396;DHT22;59888;55.814;37.132;2023-04-01T05:57:37;6.76;61.13
71396;DHT22;59888;55.814;37.132;2023-04-01T06:00:04;6.82;61.20
71396;DHT22;59888;55.814;37.132;2023-04-01T06:02:38;6.83;61.21
71396;DHT22;59888;55.814;37.132;2023-04-01T06:05:17;6.86;61.36
71396;DHT22;59888;55.814;37.132;2023-04-01T06:07:43;6.91;61.21
71396;DHT22;59888;55.814;37.132;2023-04-01T06:10:18;6.94;61.10
71396;DHT22;59888;55.814;37.132;2023-04-01T06:13:18;6.98;61.02
71396;DHT22;59888;55.814;37.132;2023-04-01T06:15:48;7.11;60.94
71396;DHT22;59888;55.814;37.132;2023-04-01T06:33:20;7.39;60.97
71396;DHT22;59888;55.814;37.132;2023-04-01T06:41:35;8.06;60.08
71396;DHT22;59888;55.814;37.132;2023-04-01T06:44:29;8.22;59.96
71396;DHT22;59888;55.814;37.132;2023-04-01T06:55:51;8.41;59.25
71396;DHT22;59888;55.814;37.132;2023-04-01T06:58:35;8.55;58.85
71396;DHT22;59888;55.814;37.132;2023-04-01T07:01:28;8.60;58.88
71396;DHT22;59888;55.814;37.132;2023-04-01T07:04:23;8.76;58.89
71396;DHT22;59888;55.814;37.132;2023-04-01T07:06:58;8.89;58.61
71396;DHT22;59888;55.814;37.132;2023-04-01T07:09:28;8.96;58.21
71396;DHT22;59888;55.814;37.132;2023-04-01T07:12:22;9.07;57.99
71396;DHT22;59888;55.814;37.132;2023-04-01T07:15:28;9.19;57.93
71396;DHT22;59888;55.814;37.132;2023-04-01T07:18:13;9.01;57.23
71396;DHT22;59888;55.814;37.132;2023-04-01T07:20:39;9.05;57.84
71396;DHT22;59888;55.814;37.132;2023-04-01T07:23:12;9.12;57.90
71396;DHT22;59888;55.814;37.132;2023-04-01T07:26:00;9.14;57.77
71396;DHT22;59888;55.814;37.132;2023-04-01T07:28:45;9.25;57.76
71396;DHT22;59888;55.814;37.132;2023-04-01T07:40:14;8.96;57.75
71396;DHT22;59888;55.814;37.132;2023-04-01T07:43:05;9.00;57.29
71396;DHT22;59888;55.814;37.132;2023-04-01T07:45:48;9.07;57.74
71396;DHT22;59888;55.814;37.132;2023-04-01T07:48:31;9.25;57.69
71396;DHT22;59888;55.814;37.132;2023-04-01T07:51:17;9.49;57.34
71396;DHT22;59888;55.814;37.132;2023-04-01T08:02:15;10.16;56.19
71396;DHT22;59888;55.814;37.132;2023-04-01T08:07:25;10.41;55.71
71396;DHT22;59888;55.814;37.132;2023-04-01T08:17:05;10.52;54.94
71396;DHT22;59888;55.814;37.132;2023-04-01T08:25:06;10.60;54.59
71396;DHT22;59888;55.814;37.132;2023-04-01T08:27:46;10.55;54.39
71396;DHT22;59888;55.814;37.132;2023-04-01T08:30:18;10.48;54.58
71396;DHT22;59888;55.814;37.132;2023-04-01T08:32:53;10.50;54.33
71396;DHT22;59888;55.814;37.132;2023-04-01T08:35:27;10.52;54.73
71396;DHT22;59888;55.814;37.132;2023-04-01T08:37:57;10.60;54.54
71396;DHT22;59888;55.814;37.132;2023-04-01T08:48:51;10.79;52.58
71396;DHT22;59888;55.814;37.132;2023-04-01T08:52:12;10.84;52.46
71396;DHT22;59888;55.814;37.132;2023-04-01T08:57:05;11.07;51.46
71396;DHT22;59888;55.814;37.132;2023-04-01T09:11:03;10.82;50.38
71396;DHT22;59888;55.814;37.132;2023-04-01T09:14:05;10.78;48.39
71396;DHT22;59888;55.814;37.132;2023-04-01T09:16:45;10.83;51.00
71396;DHT22;59888;55.814;37.132;2023-04-01T09:27:54;11.16;50.53
71396;DHT22;59888;55.814;37.132;2023-04-01T09:35:50;11.43;46.93
71396;DHT22;59888;55.814;37.132;2023-04-01T10:30:05;12.79;45.88
71396;DHT22;59888;55.814;37.132;2023-04-01T10:47:36;13.62;43.12
71396;DHT22;59888;55.814;37.132;2023-04-01T10:55:31;13.74;44.90
71396;DHT22;59888;55.814;37.132;2023-04-01T11:07:39;14.37;42.77
71396;DHT22;59888;55.814;37.132;2023-04-01T11:13:41;14.64;43.85
71396;DHT22;59888;55.814;37.132;2023-04-01T11:25:50;14.50;41.74
71396;DHT22;59888;55.814;37.132;2023-04-01T11:31:54;14.41;43.26
71396;DHT22;59888;55.814;37.132;2023-04-01T11:38:39;14.17;41.62
71396;DHT22;59888;55.814;37.132;2023-04-01T11:44:24;14.09;43.58
71396;DHT22;59888;55.814;37.132;2023-04-01T11:47:45;13.98;43.95
71396;DHT22;59888;55.814;37.132;2023-04-01T11:53:02;13.64;42.29
71396;DHT22;59888;55.814;37.132;2023-04-01T11:58:47;13.63;42.47
71396;DHT22;59888;55.814;37.132;2023-04-01T12:04:36;13.53;41.84
71396;DHT22;59888;55.814;37.132;2023-04-01T12:10:12;13.48;42.86
71396;DHT22;59888;55.814;37.132;2023-04-01T12:24:21;13.17;42.92
71396;DHT22;59888;55.814;37.132;2023-04-01T12:29:58;13.08;43.83
71396;DHT22;59888;55.814;37.132;2023-04-01T12:32:49;12.91;42.74
71396;DHT22;59888;55.814;37.132;2023-04-01T12:51:36;12.36;44.29
71396;DHT22;59888;55.814;37.132;2023-04-01T13:02:37;12.13;44.15
71396;DHT22;59888;55.814;37.132;2023-04-01T13:08:39;12.03;44.42
71396;DHT22;59888;55.814;37.132;2023-04-01T13:16:31;11.72;45.09
71396;DHT22;59888;55.814;37.132;2023-04-01T13:22:27;11.64;44.47
71396;DHT22;59888;55.814;37.132;2023-04-01T13:24:34;11.64;44.08
71396;DHT22;59888;55.814;37.132;2023-04-01T13:27:12;11.63;44.25
71396;DHT22;59888;55.814;37.132;2023-04-01T13:32:27;11.66;44.06
71396;DHT22;59888;55.814;37.132;2023-04-01T13:35:15;11.70;44.36
71396;DHT22;59888;55.814;37.132;2023-04-01T13:37:57;11.69;44.96
71396;DHT22;59888;55.814;37.132;2023-04-01T13:40:25;11.61;44.71
71396;DHT22;59888;55.814;37.132;2023-04-01T13:43:17;11.58;44.35
71396;DHT22;59888;55.814;37.132;2023-04-01T13:46:06;11.51;44.39
71396;DHT22;59888;55.814;37.132;2023-04-01T14:07:50;10.99;44.37
71396;DHT22;59888;55.814;37.132;2023-04-01T14:13:15;10.99;44.54
71396;DHT22;59888;55.814;37.132;2023-04-01T14:18:33;10.87;45.02
71396;DHT22;59888;55.814;37.132;2023-04-01T14:27:00;10.72;45.85
71396;DHT22;59888;55.814;37.132;2023-04-01T14:34:45;10.66;46.53
71396;DHT22;59888;55.814;37.132;2023-04-01T14:40:22;10.64;46.89
71396;DHT22;59888;55.814;37.132;2023-04-01T14:49:00;10.46;47.55
71396;DHT22;59888;55.814;37.132;2023-04-01T14:51:38;10.40;47.54
71396;DHT22;59888;55.814;37.132;2023-04-01T14:56:42;10.35;48.23
71396;DHT22;59888;55.814;37.132;2023-04-01T15:24:13;9.91;51.72
71396;DHT22;59888;55.814;37.132;2023-04-01T15:26:56;9.91;51.98
71396;DHT22;59888;55.814;37.132;2023-04-01T15:35:58;9.83;52.94
71396;DHT22;59888;55.814;37.132;2023-04-01T15:38:39;9.76;52.75
71396;DHT22;59888;55.814;37.132;2023-04-01T15:47:01;9.68;53.65
71396;DHT22;59888;55.814;37.132;2023-04-01T15:49:42;9.69;54.03
71396;DHT22;59888;55.814;37.132;2023-04-01T15:52:24;9.71;54.28
71396;DHT22;59888;55.814;37.132;2023-04-01T16:00:25;9.75;54.49
71396;DHT22;59888;55.814;37.132;2023-04-01T16:11:55;9.66;55.24
71396;DHT22;59888;55.814;37.132;2023-04-01T16:14:31;9.66;55.23
71396;DHT22;59888;55.814;37.132;2023-04-01T16:19:49;9.57;55.44
71396;DHT22;59888;55.814;37.132;2023-04-01T16:22:31;9.52;55.17
71396;DHT22;59888;55.814;37.132;2023-04-01T16:25:14;9.48;55.67
71396;DHT22;59888;55.814;37.132;2023-04-01T16:30:48;9.34;55.99
71396;DHT22;59888;55.814;37.132;2023-04-01T16:33:22;9.33;55.70
71396;DHT22;59888;55.814;37.132;2023-04-01T16:36:01;9.29;56.46
71396;DHT22;59888;55.814;37.132;2023-04-01T16:47:40;9.31;56.77
71396;DHT22;59888;55.814;37.132;2023-04-01T16:53:14;9.30;56.77
71396;DHT22;59888;55.814;37.132;2023-04-01T16:55:52;9.26;56.81
71396;DHT22;59888;55.814;37.132;2023-04-01T16:58:39;9.22;56.84
71396;DHT22;59888;55.814;37.132;2023-04-01T17:01:11;9.20;56.90
71396;DHT22;59888;55.814;37.132;2023-04-01T17:03:42;9.21;56.82
71396;DHT22;59888;55.814;37.132;2023-04-01T17:06:40;9.19;57.41
71396;DHT22;59888;55.814;37.132;2023-04-01T17:22:47;9.07;57.22
71396;DHT22;59888;55.814;37.132;2023-04-01T17:25:20;9.01;57.06
71396;DHT22;59888;55.814;37.132;2023-04-01T17:31:05;8.91;57.97
71396;DHT22;59888;55.814;37.132;2023-04-01T17:42:16;8.95;58.01
71396;DHT22;59888;55.814;37.132;2023-04-01T17:45:08;8.96;57.93
71396;DHT22;59888;55.814;37.132;2023-04-01T17:53:23;8.98;58.34
71396;DHT22;59888;55.814;37.132;2023-04-01T17:58:31;8.87;58.16
71396;DHT22;59888;55.814;37.132;2023-04-01T18:12:17;8.73;59.04
71396;DHT22;59888;55.814;37.132;2023-04-01T18:17:27;8.67;59.19
71396;DHT22;59888;55.814;37.132;2023-04-01T18:22:54;8.71;59.40
71396;DHT22;59888;55.814;37.132;2023-04-01T18:25:37;8.66;58.70
71396;DHT22;59888;55.814;37.132;2023-04-01T18:30:55;8.70;59.48
71396;DHT22;59888;55.814;37.132;2023-04-01T18:33:50;8.71;59.51
71396;DHT22;59888;55.814;37.132;2023-04-01T18:41:32;8.74;59.67
71396;DHT22;59888;55.814;37.132;2023-04-01T18:44:05;8.73;59.40
71396;DHT22;59888;55.814;37.132;2023-04-01T18:54:33;8.66;59.48
71396;DHT22;59888;55.814;37.132;2023-04-01T18:57:17;8.68;59.86
71396;DHT22;59888;55.814;37.132;2023-04-01T19:00:03;8.70;59.98
71396;DHT22;59888;55.814;37.132;2023-04-01T19:02:39;8.70;59.67
71396;DHT22;59888;55.814;37.132;2023-04-01T19:07:50;8.66;59.08
71396;DHT22;59888;55.814;37.132;2023-04-01T19:18:35;8.64;60.63
71396;DHT22;59888;55.814;37.132;2023-04-01T19:26:35;8.61;60.43
71396;DHT22;59888;55.814;37.132;2023-04-01T19:35:23;8.59;61.36
71396;DHT22;59888;55.814;37.132;2023-04-01T19:46:16;8.62;61.31
71396;DHT22;59888;55.814;37.132;2023-04-01T19:54:27;8.77;60.89
71396;DHT22;59888;55.814;37.132;2023-04-01T20:04:43;8.85;60.94
71396;DHT22;59888;55.814;37.132;2023-04-01T20:07:24;8.86;61.11
71396;DHT22;59888;55.814;37.132;2023-04-01T20:10:20;8.85;61.24
71396;DHT22;59888;55.814;37.132;2023-04-01T20:17:49;8.82;60.73
71396;DHT22;59888;55.814;37.132;2023-04-01T20:20:26;8.83;61.14
71396;DHT22;59888;55.814;37.132;2023-04-01T20:23:07;8.88;61.34
71396;DHT22;59888;55.814;37.132;2023-04-01T20:25:58;8.95;61.12
71396;DHT22;59888;55.814;37.132;2023-04-01T20:49:56;8.90;61.15
71396;DHT22;59888;55.814;37.132;2023-04-01T20:52:38;8.89;61.07
71396;DHT22;59888;55.814;37.132;2023-04-01T21:06:31;8.92;61.59
71396;DHT22;59888;55.814;37.132;2023-04-01T21:14:43;8.94;61.43
71396;DHT22;59888;55.814;37.132;2023-04-01T21:17:22;8.96;61.43
71396;DHT22;59888;55.814;37.132;2023-04-01T21:34:12;8.96;62.02
71396;DHT22;59888;55.814;37.132;2023-04-01T21:44:43;8.92;61.67
71396;DHT22;59888;55.814;37.132;2023-04-01T21:58:06;8.97;62.12
71396;DHT22;59888;55.814;37.132;2023-04-01T22:00:52;8.98;61.73
71396;DHT22;59888;55.814;37.132;2023-04-01T22:09:24;8.97;62.22
71396;DHT22;59888;55.814;37.132;2023-04-01T22:12:13;8.93;61.86
71396;DHT22;59888;55.814;37.132;2023-04-01T22:18:01;8.96;62.19
71396;DHT22;59888;55.814;37.132;2023-04-01T22:20:43;9.01;62.41
71396;DHT22;59888;55.814;37.132;2023-04-01T22:23:28;9.00;62.41
71396;DHT22;59888;55.814;37.132;2023-04-01T22:25:59;9.03;62.34
71396;DHT22;59888;55.814;37.132;2023-04-01T22:28:38;9.05;62.25
71396;DHT22;59888;55.814;37.132;2023-04-01T22:31:07;9.06;62.11
71396;DHT22;59888;55.814;37.132;2023-04-01T22:33:44;9.06;61.78
71396;DHT22;59888;55.814;37.132;2023-04-01T22:42:05;8.97;62.44
71396;DHT22;59888;55.814;37.132;2023-04-01T22:45:15;8.98;62.80
71396;DHT22;59888;55.814;37.132;2023-04-01T22:50:35;9.05;62.81
71396;DHT22;59888;55.814;37.132;2023-04-01T22:55:49;8.97;62.91
71396;DHT22;59888;55.814;37.132;2023-04-01T22:58:30;9.00;63.41
71396;DHT22;59888;55.814;37.132;2023-04-01T23:01:00;9.00;63.17
71396;DHT22;59888;55.814;37.132;2023-04-01T23:03:31;9.04;63.26
71396;DHT22;59888;55.814;37.132;2023-04-01T23:05:59;9.06;63.47
71396;DHT22;59888;55.814;37.132;2023-04-01T23:11:08;9.10;63.34
71396;DHT22;59888;55.814;37.132;2023-04-01T23:13:43;9.11;63.35
71396;DHT22;59888;55.814;37.132;2023-04-01T23:16:10;9.16;62.86
71396;DHT22;59888;55.814;37.132;2023-04-01T23:18:52;9.16;63.42
71396;DHT22;59888;55.814;37.132;2023-04-01T23:21:48;9.18;63.38
71396;DHT22;59888;55.814;37.132;2023-04-01T23:24:30;9.14;63.37
71396;DHT22;59888;55.814;37.132;2023-04-01T23:27:10;9.10;63.61
71396;DHT22;59888;55.814;37.132;2023-04-01T23:29:38;9.09;63.47
71396;DHT22;59888;55.814;37.132;2023-04-01T23:32:17;9.10;63.83
71396;DHT22;59888;55.814;37.132;2023-04-01T23:34:51;9.11;63.91
71396;DHT22;59888;55.814;37.132;2023-04-01T23:37:18;9.12;63.73
71396;DHT22;59888;55.814;37.132;2023-04-01T23:39:50;9.16;63.97
71396;DHT22;59888;55.814;37.132;2023-04-01T23:42:31;9.12;64.11
71396;DHT22;59888;55.814;37.132;2023-04-01T23:45:04;9.16;63.95
71396;DHT22;59888;55.814;37.132;2023-04-01T23:47:37;9.17;63.85
71396;DHT22;59888;55.814;37.132;2023-04-01T23:50:13;9.16;63.77
71396;DHT22;59888;55.814;37.132;2023-04-01T23:52:42;9.15;63.95
71396;DHT22;59888;55.814;37.132;2023-04-01T23:55:47;9.11;64.25
